createdAt,value
2023-03-26T00:00:33.589Z,1.04
2023-03-26T00:01:34.045Z,1.04
2023-03-26T00:02:33.969Z,1.04
2023-03-26T00:03:34.017Z,1.04
2023-03-26T00:04:34.187Z,1.04
2023-03-26T00:05:34.383Z,1.04
2023-03-26T00:06:34.484Z,1.04
2023-03-26T00:07:34.633Z,1.04
2023-03-26T00:08:34.760Z,1.04
2023-03-26T00:09:34.907Z,1.04
2023-03-26T00:10:34.972Z,1.04
2023-03-26T00:11:35.092Z,1.04
2023-03-26T00:12:35.217Z,1.04
2023-03-26T00:13:35.353Z,1.04
2023-03-26T00:14:35.515Z,1.04
2023-03-26T00:15:35.574Z,1.04
2023-03-26T00:16:35.814Z,1.04
2023-03-26T00:17:35.916Z,1.04
2023-03-26T00:18:36.053Z,1.04
2023-03-26T00:19:36.199Z,1.04
2023-03-26T00:20:36.321Z,1.04
2023-03-26T00:21:36.469Z,1.04
2023-03-26T00:22:36.570Z,1.04
2023-03-26T00:23:36.728Z,1.04
2023-03-26T00:24:36.863Z,1.04
2023-03-26T00:25:36.977Z,1.04
2023-03-26T00:26:37.139Z,1.04
2023-03-26T00:27:37.320Z,1.04
2023-03-26T00:28:37.431Z,1.04
2023-03-26T00:29:37.550Z,1.04
2023-03-26T00:30:37.935Z,1.04
2023-03-26T00:31:37.881Z,1.04
2023-03-26T00:32:38.066Z,1.04
2023-03-26T00:33:38.199Z,1.04
2023-03-26T00:34:38.327Z,1.04
2023-03-26T00:35:38.574Z,1.04
2023-03-26T00:36:38.644Z,1.04
2023-03-26T00:37:38.778Z,1.04
2023-03-26T00:38:39.141Z,1.04
2023-03-26T00:39:39.050Z,1.04
2023-03-26T00:40:39.152Z,1.04
2023-03-26T00:41:39.290Z,1.04
2023-03-26T00:42:39.449Z,1.04
2023-03-26T00:43:39.600Z,1.04
2023-03-26T00:44:39.736Z,1.04
2023-03-26T00:45:39.924Z,1.04
2023-03-26T00:46:40.228Z,1.04
2023-03-26T00:47:40.384Z,1.04
2023-03-26T00:48:45.360Z,1.04
2023-03-26T00:49:40.518Z,1.04
2023-03-26T00:50:40.658Z,1.04
2023-03-26T00:51:40.800Z,1.04
2023-03-26T00:52:40.963Z,1.04
2023-03-26T00:53:41.117Z,1.04
2023-03-26T00:54:41.270Z,1.04
2023-03-26T00:55:41.424Z,1.04
2023-03-26T00:56:41.593Z,1.04
2023-03-26T00:57:41.710Z,1.04
2023-03-26T00:58:41.892Z,1.04
2023-03-26T00:59:42.020Z,1.04
2023-03-26T01:00:42.174Z,1.04
2023-03-26T01:01:42.341Z,1.04
2023-03-26T01:02:42.483Z,1.04
2023-03-26T01:03:47.938Z,1.04
2023-03-26T01:04:42.763Z,1.04
2023-03-26T01:05:42.794Z,1.04
2023-03-26T01:06:42.882Z,1.04
2023-03-26T01:07:43.019Z,1.04
2023-03-26T01:08:43.201Z,1.04
2023-03-26T01:09:43.329Z,1.04
2023-03-26T01:10:43.493Z,1.04
2023-03-26T01:11:43.624Z,1.04
2023-03-26T01:12:43.798Z,1.04
2023-03-26T01:13:43.930Z,1.04
2023-03-26T01:14:44.099Z,1.04
2023-03-26T01:15:44.296Z,1.04
2023-03-26T01:16:44.340Z,1.04
2023-03-26T01:17:44.532Z,1.04
2023-03-26T01:18:44.639Z,1.04
2023-03-26T01:19:44.923Z,1.04
2023-03-26T01:20:44.948Z,1.04
2023-03-26T01:21:45.107Z,1.04
2023-03-26T01:22:45.263Z,1.04
2023-03-26T01:23:45.402Z,1.04
2023-03-26T01:24:45.568Z,1.04
2023-03-26T01:25:45.703Z,1.04
2023-03-26T01:26:45.868Z,1.04
2023-03-26T01:27:46.022Z,1.04
2023-03-26T01:28:46.179Z,1.04
2023-03-26T01:29:46.320Z,1.04
2023-03-26T01:30:46.456Z,1.04
2023-03-26T01:31:46.573Z,1.04
2023-03-26T01:32:46.777Z,1.04
2023-03-26T01:33:46.894Z,1.04
2023-03-26T01:34:46.985Z,1.04
2023-03-26T01:35:47.213Z,1.04
2023-03-26T01:36:47.274Z,1.04
2023-03-26T01:37:47.429Z,1.04
2023-03-26T01:38:47.584Z,1.04
2023-03-26T01:39:47.684Z,1.04
2023-03-26T01:40:47.833Z,1.04
2023-03-26T01:41:47.993Z,1.04
2023-03-26T01:42:48.138Z,1.04
2023-03-26T01:43:48.244Z,1.04
2023-03-26T01:44:48.376Z,1.04
2023-03-26T01:45:48.570Z,1.04
2023-03-26T01:46:48.739Z,1.04
2023-03-26T01:47:48.871Z,1.04
2023-03-26T01:48:48.995Z,1.04
2023-03-26T01:49:49.101Z,1.04
2023-03-26T01:50:49.275Z,1.04
2023-03-26T01:51:49.407Z,1.04
2023-03-26T01:52:49.552Z,1.04
2023-03-26T01:53:49.651Z,1.04
2023-03-26T01:54:49.749Z,1.04
2023-03-26T01:55:49.898Z,1.04
2023-03-26T01:56:50.119Z,1.04
2023-03-26T01:57:50.205Z,1.04
2023-03-26T01:58:50.364Z,1.04
2023-03-26T01:59:50.516Z,1.04
2023-03-26T02:00:50.668Z,1.04
2023-03-26T02:01:50.901Z,1.04
2023-03-26T02:02:51.065Z,1.04
2023-03-26T02:03:51.124Z,1.04
2023-03-26T02:04:51.268Z,1.04
2023-03-26T02:05:51.488Z,1.04
2023-03-26T02:06:51.530Z,1.04
2023-03-26T02:07:51.671Z,1.04
2023-03-26T02:08:51.834Z,1.04
2023-03-26T02:09:51.976Z,1.04
2023-03-26T02:10:52.054Z,1.04
2023-03-26T02:11:52.206Z,1.04
2023-03-26T02:12:52.373Z,1.04
2023-03-26T02:13:52.469Z,1.04
2023-03-26T02:14:52.637Z,1.04
2023-03-26T02:15:53.009Z,1.04
2023-03-26T02:16:52.894Z,1.04
2023-03-26T02:17:53.127Z,1.04
2023-03-26T02:18:53.178Z,1.04
2023-03-26T02:19:53.340Z,1.04
2023-03-26T02:20:53.492Z,1.04
2023-03-26T02:21:53.651Z,1.04
2023-03-26T02:22:53.763Z,1.04
2023-03-26T02:23:53.935Z,1.04
2023-03-26T02:24:54.043Z,1.04
2023-03-26T02:25:54.380Z,1.04
2023-03-26T02:26:54.365Z,1.04
2023-03-26T02:27:54.464Z,1.04
2023-03-26T02:28:54.620Z,1.04
2023-03-26T02:29:54.754Z,1.04
2023-03-26T02:30:54.857Z,1.04
2023-03-26T02:31:55.034Z,1.04
2023-03-26T02:32:55.130Z,1.04
2023-03-26T02:33:55.261Z,1.04
2023-03-26T02:34:55.409Z,1.04
2023-03-26T02:35:55.767Z,1.04
2023-03-26T02:36:55.727Z,1.04
2023-03-26T02:37:55.859Z,1.04
2023-03-26T02:38:56.019Z,1.04
2023-03-26T02:39:56.172Z,1.04
2023-03-26T02:40:56.329Z,1.04
2023-03-26T02:41:56.418Z,1.04
2023-03-26T02:42:56.582Z,1.04
2023-03-26T02:43:56.726Z,1.04
2023-03-26T02:44:56.884Z,1.04
2023-03-26T02:45:57.133Z,1.04
2023-03-26T02:46:57.139Z,1.04
2023-03-26T02:47:57.322Z,1.04
2023-03-26T02:48:57.441Z,1.04
2023-03-26T02:49:57.563Z,1.04
2023-03-26T02:50:57.680Z,1.04
2023-03-26T02:51:57.836Z,1.04
2023-03-26T02:52:58.007Z,1.04
2023-03-26T02:53:58.135Z,1.04
2023-03-26T02:54:58.312Z,1.04
2023-03-26T02:55:58.451Z,1.04
2023-03-26T02:56:58.654Z,1.04
2023-03-26T02:57:58.760Z,1.04
2023-03-26T02:58:58.912Z,1.04
2023-03-26T02:59:58.997Z,1.04
2023-03-26T03:00:59.199Z,1.04
2023-03-26T03:01:59.326Z,1.04
2023-03-26T03:02:59.534Z,1.04
2023-03-26T03:03:59.611Z,1.04
2023-03-26T03:04:59.765Z,1.04
2023-03-26T03:05:59.910Z,1.04
2023-03-26T03:07:00.026Z,1.04
2023-03-26T03:08:00.160Z,1.04
2023-03-26T03:09:00.264Z,1.04
2023-03-26T03:10:00.418Z,1.04
2023-03-26T03:11:00.577Z,1.04
2023-03-26T03:12:00.717Z,1.04
2023-03-26T03:13:00.874Z,1.04
2023-03-26T03:14:00.962Z,1.04
2023-03-26T03:15:01.122Z,1.04
2023-03-26T03:16:01.277Z,1.04
2023-03-26T03:17:01.442Z,1.04
2023-03-26T03:18:01.608Z,1.04
2023-03-26T03:19:01.730Z,1.04
2023-03-26T03:20:01.882Z,1.04
2023-03-26T03:21:02.054Z,1.04
2023-03-26T03:22:02.200Z,1.04
2023-03-26T03:23:02.337Z,1.04
2023-03-26T03:24:02.494Z,1.04
2023-03-26T03:25:02.638Z,1.04
2023-03-26T03:26:02.796Z,1.04
2023-03-26T03:27:02.954Z,1.04
2023-03-26T03:28:03.097Z,1.04
2023-03-26T03:29:03.194Z,1.04
2023-03-26T03:30:03.352Z,1.04
2023-03-26T03:31:03.582Z,1.04
2023-03-26T03:32:03.607Z,1.04
2023-03-26T03:33:03.748Z,1.04
2023-03-26T03:34:03.887Z,1.04
2023-03-26T03:35:04.015Z,1.04
2023-03-26T03:36:04.186Z,1.04
2023-03-26T03:37:04.321Z,1.04
2023-03-26T03:38:04.464Z,1.04
2023-03-26T03:39:04.611Z,1.04
2023-03-26T03:40:04.766Z,1.04
2023-03-26T03:41:04.901Z,1.04
2023-03-26T03:42:05.079Z,1.04
2023-03-26T03:43:05.226Z,1.04
2023-03-26T03:44:05.385Z,1.04
2023-03-26T03:45:05.537Z,1.04
2023-03-26T03:46:05.683Z,1.04
2023-03-26T03:47:05.829Z,1.04
2023-03-26T03:48:06.023Z,1.04
2023-03-26T03:49:06.067Z,1.04
2023-03-26T03:50:06.209Z,1.04
2023-03-26T03:51:06.396Z,1.04
2023-03-26T03:52:06.537Z,1.04
2023-03-26T03:53:06.707Z,1.04
2023-03-26T03:54:06.801Z,1.04
2023-03-26T03:55:06.946Z,1.04
2023-03-26T03:56:07.045Z,1.04
2023-03-26T03:57:07.303Z,1.04
2023-03-26T03:58:07.357Z,1.04
2023-03-26T03:59:07.486Z,1.04
2023-03-26T04:00:07.656Z,1.04
2023-03-26T04:01:07.763Z,1.04
2023-03-26T04:02:07.904Z,1.04
2023-03-26T04:03:08.136Z,1.04
2023-03-26T04:04:08.174Z,1.04
2023-03-26T04:05:08.313Z,1.04
2023-03-26T04:06:08.451Z,1.04
2023-03-26T04:07:08.614Z,1.04
2023-03-26T04:08:08.766Z,1.04
2023-03-26T04:09:08.910Z,1.04
2023-03-26T04:10:09.283Z,1.04
2023-03-26T04:12:09.801Z,1.04
2023-03-26T04:13:09.419Z,1.04
2023-03-26T04:14:09.558Z,1.04
2023-03-26T04:15:09.670Z,1.04
2023-03-26T04:16:09.907Z,1.04
2023-03-26T04:17:09.947Z,1.04
2023-03-26T04:18:10.155Z,1.04
2023-03-26T04:19:10.238Z,1.04
2023-03-26T04:20:10.367Z,1.04
2023-03-26T04:21:10.531Z,1.04
2023-03-26T04:22:10.678Z,1.04
2023-03-26T04:23:10.836Z,1.04
2023-03-26T04:24:10.976Z,1.04
2023-03-26T04:25:11.079Z,2
2023-03-26T04:26:11.241Z,2
2023-03-26T04:27:11.391Z,2
2023-03-26T04:28:11.495Z,2
2023-03-26T04:29:11.640Z,2
2023-03-26T04:30:11.799Z,3.04
2023-03-26T04:32:12.102Z,5.04
2023-03-26T04:33:12.242Z,7.04
2023-03-26T04:34:12.404Z,8
2023-03-26T04:35:12.556Z,10
2023-03-26T04:36:12.743Z,12
2023-03-26T04:37:12.869Z,14
2023-03-26T04:38:13.007Z,15.04
2023-03-26T04:39:13.219Z,16
2023-03-26T04:40:13.336Z,18
2023-03-26T04:41:13.455Z,20
2023-03-26T04:42:13.611Z,24
2023-03-26T04:43:13.768Z,28
2023-03-26T04:44:13.915Z,31.04
2023-03-26T04:45:14.058Z,34
2023-03-26T04:46:14.276Z,39.04
2023-03-26T04:47:14.314Z,44
2023-03-26T04:48:14.461Z,48
2023-03-26T04:49:14.636Z,48
2023-03-26T04:50:14.782Z,42
2023-03-26T04:51:14.870Z,42
2023-03-26T04:52:15.013Z,41.04
2023-03-26T04:53:15.142Z,42
2023-03-26T04:54:15.243Z,46
2023-03-26T04:55:15.375Z,55.04
2023-03-26T04:56:15.550Z,67.04
2023-03-26T04:57:15.719Z,73.04
2023-03-26T04:58:15.839Z,79.04
2023-03-26T04:59:15.943Z,73.04
2023-03-26T05:00:16.093Z,67.04
2023-03-26T05:01:16.272Z,79.04
2023-03-26T05:02:16.392Z,94
2023-03-26T05:03:16.559Z,101.04
2023-03-26T05:04:16.922Z,110
2023-03-26T05:05:16.812Z,110
2023-03-26T05:06:16.912Z,113.04
2023-03-26T05:07:17.058Z,117.04
2023-03-26T05:08:17.235Z,146
2023-03-26T05:09:17.349Z,171.04
2023-03-26T05:10:17.504Z,192
2023-03-26T05:11:17.654Z,201.12
2023-03-26T05:12:17.775Z,177.12
2023-03-26T05:13:17.922Z,173.12
2023-03-26T05:14:18.082Z,182.08
2023-03-26T05:15:18.170Z,199.04
2023-03-26T05:16:18.350Z,223.04
2023-03-26T05:17:18.469Z,218.08
2023-03-26T05:18:18.621Z,222.08
2023-03-26T05:19:18.791Z,240
2023-03-26T05:20:18.931Z,314.08
2023-03-26T05:21:19.080Z,362.24
2023-03-26T05:22:19.212Z,329.28
2023-03-26T05:23:19.378Z,318.08
2023-03-26T05:24:19.526Z,372.16
2023-03-26T05:25:19.676Z,379.2
2023-03-26T05:26:19.813Z,393.28
2023-03-26T05:27:19.982Z,460.16
2023-03-26T05:28:20.087Z,528
2023-03-26T05:29:20.226Z,544
2023-03-26T05:30:20.398Z,449.28
2023-03-26T05:31:20.541Z,393.28
2023-03-26T05:32:20.686Z,428.16
2023-03-26T05:33:20.866Z,580.16
2023-03-26T05:34:21.007Z,667.52
2023-03-26T05:35:21.146Z,695.04
2023-03-26T05:36:21.294Z,781.44
2023-03-26T05:37:21.445Z,655.04
2023-03-26T05:38:21.555Z,605.12
2023-03-26T05:39:21.644Z,657.28
2023-03-26T05:40:21.797Z,727.04
2023-03-26T05:41:21.901Z,873.6
2023-03-26T05:42:22.049Z,1036.16
2023-03-26T05:43:22.196Z,946.56
2023-03-26T05:44:22.365Z,902.4
2023-03-26T05:45:22.486Z,989.44
2023-03-26T05:46:22.646Z,1224.32
2023-03-26T05:47:22.761Z,1523.2
2023-03-26T05:48:22.877Z,1775.36
2023-03-26T05:49:23.027Z,2237.44
2023-03-26T05:50:23.167Z,3374.08
2023-03-26T05:51:23.327Z,4520.96
2023-03-26T05:52:23.477Z,4730.88
2023-03-26T05:53:23.619Z,5473.28
2023-03-26T05:54:23.775Z,6077.44
2023-03-26T05:55:23.943Z,6456.32
2023-03-26T05:56:24.079Z,7127.04
2023-03-26T05:57:24.231Z,8386.56
2023-03-26T05:58:24.340Z,12492.8
2023-03-26T05:59:24.485Z,12001.279
2023-03-26T06:00:24.623Z,12195.84
2023-03-26T06:01:24.785Z,14120.96
2023-03-26T06:02:24.938Z,10516.479
2023-03-26T06:03:25.251Z,6707.2
2023-03-26T06:04:25.254Z,6640.64
2023-03-26T06:05:25.344Z,4664.32
2023-03-26T06:06:25.488Z,6149.12
2023-03-26T06:07:25.626Z,8719.359
2023-03-26T06:08:25.786Z,5632
2023-03-26T06:09:25.942Z,5852.16
2023-03-26T06:10:26.047Z,5452.8
2023-03-26T06:11:26.193Z,4454.4
2023-03-26T06:12:26.344Z,3356.16
2023-03-26T06:13:26.515Z,2657.28
2023-03-26T06:14:26.657Z,2385.92
2023-03-26T06:15:26.751Z,3110.4
2023-03-26T06:16:27.893Z,2995.2
2023-03-26T06:17:27.017Z,3320.32
2023-03-26T06:18:27.176Z,4029.44
2023-03-26T06:19:27.298Z,5678.08
2023-03-26T06:20:27.514Z,6645.76
2023-03-26T06:21:27.558Z,6881.28
2023-03-26T06:22:27.688Z,6415.36
2023-03-26T06:23:27.858Z,5544.96
2023-03-26T06:24:28.036Z,5194.24
2023-03-26T06:25:28.125Z,5596.16
2023-03-26T06:26:28.286Z,6461.44
2023-03-26T06:27:28.427Z,6804.48
2023-03-26T06:28:28.591Z,6231.04
2023-03-26T06:29:28.778Z,4984.32
2023-03-26T06:30:28.887Z,4244.48
2023-03-26T06:31:29.073Z,4157.44
2023-03-26T06:32:29.197Z,4546.56
2023-03-26T06:33:29.354Z,4733.44
2023-03-26T06:34:29.487Z,4613.12
2023-03-26T06:35:29.630Z,4503.04
2023-03-26T06:36:29.788Z,4111.36
2023-03-26T06:37:29.933Z,4449.28
2023-03-26T06:38:30.094Z,5314.56
2023-03-26T06:39:30.261Z,6072.32
2023-03-26T06:40:30.416Z,6103.04
2023-03-26T06:41:30.546Z,5514.24
2023-03-26T06:42:32.072Z,5903.36
2023-03-26T06:43:30.844Z,6123.52
2023-03-26T06:44:30.988Z,6179.84
2023-03-26T06:45:31.103Z,6353.92
2023-03-26T06:46:31.252Z,5939.2
2023-03-26T06:47:31.452Z,5565.44
2023-03-26T06:48:31.557Z,5765.12
2023-03-26T06:49:31.725Z,5918.72
2023-03-26T06:50:31.877Z,5877.76
2023-03-26T06:51:32.026Z,5442.56
2023-03-26T06:52:32.174Z,5457.92
2023-03-26T06:53:32.313Z,5652.48
2023-03-26T06:54:32.414Z,5944.32
2023-03-26T06:55:32.517Z,5882.88
2023-03-26T06:56:32.682Z,5980.16
2023-03-26T06:57:32.829Z,6062.08
2023-03-26T06:58:32.980Z,5662.72
2023-03-26T06:59:33.140Z,5020.16
2023-03-26T07:00:33.270Z,4024.32
2023-03-26T07:01:33.411Z,3466.24
2023-03-26T07:02:33.547Z,3937.28
2023-03-26T07:03:33.652Z,5096.96
2023-03-26T07:04:33.731Z,6118.4
2023-03-26T07:05:33.888Z,6712.32
2023-03-26T07:06:34.034Z,6983.68
2023-03-26T07:07:34.184Z,7936
2023-03-26T07:08:34.348Z,9251.84
2023-03-26T07:09:34.492Z,11571.2
2023-03-26T07:10:34.648Z,13926.399
2023-03-26T07:11:34.786Z,15677.439
2023-03-26T07:12:34.946Z,14643.199
2023-03-26T07:13:35.103Z,11397.12
2023-03-26T07:14:35.265Z,9963.52
2023-03-26T07:15:35.402Z,9405.439
2023-03-26T07:16:35.604Z,9338.88
2023-03-26T07:17:35.668Z,8985.6
2023-03-26T07:18:35.764Z,8535.04
2023-03-26T07:19:35.915Z,9077.76
2023-03-26T07:20:36.044Z,10378.24
2023-03-26T07:21:36.171Z,11284.479
2023-03-26T07:22:36.329Z,10173.439
2023-03-26T07:23:36.479Z,9697.279
2023-03-26T07:24:36.623Z,10711.04
2023-03-26T07:25:36.773Z,11560.96
2023-03-26T07:26:36.917Z,10946.56
2023-03-26T07:27:37.076Z,10250.24
2023-03-26T07:28:37.222Z,9743.359
2023-03-26T07:29:37.337Z,8028.16
2023-03-26T07:30:37.418Z,6671.36
2023-03-26T07:31:37.650Z,6400
2023-03-26T07:32:37.741Z,6333.44
2023-03-26T07:33:37.836Z,7526.4
2023-03-26T07:34:37.984Z,8919.04
2023-03-26T07:35:38.188Z,9451.52
2023-03-26T07:36:38.235Z,8893.439
2023-03-26T07:37:38.394Z,8576
2023-03-26T07:38:38.544Z,9364.479
2023-03-26T07:39:38.686Z,11560.96
2023-03-26T07:40:38.833Z,15912.96
2023-03-26T07:41:38.990Z,17100.8
2023-03-26T07:42:39.147Z,15974.399
2023-03-26T07:43:39.283Z,13967.359
2023-03-26T07:44:39.397Z,12544
2023-03-26T07:45:39.516Z,11274.24
2023-03-26T07:46:39.585Z,11243.52
2023-03-26T07:47:39.760Z,11530.239
2023-03-26T07:48:39.906Z,8944.64
2023-03-26T07:49:40.068Z,6215.68
2023-03-26T07:50:40.205Z,4241.92
2023-03-26T07:51:40.317Z,3648
2023-03-26T07:52:40.463Z,3084.8
2023-03-26T07:53:40.606Z,2967.04
2023-03-26T07:54:40.758Z,3261.44
2023-03-26T07:55:40.869Z,3950.08
2023-03-26T07:56:41.081Z,5173.76
2023-03-26T07:57:41.169Z,6292.48
2023-03-26T07:58:41.256Z,7301.12
2023-03-26T07:59:41.427Z,7920.64
2023-03-26T08:00:41.560Z,8919.04
2023-03-26T08:01:41.672Z,11110.399
2023-03-26T08:02:41.856Z,12175.359
2023-03-26T08:03:41.978Z,16936.96
2023-03-26T08:04:42.171Z,29245.44
2023-03-26T08:05:42.213Z,22077.44
2023-03-26T08:06:42.361Z,16578.56
2023-03-26T08:07:42.520Z,16629.76
2023-03-26T08:08:42.665Z,19097.6
2023-03-26T08:09:42.824Z,21831.68
2023-03-26T08:10:42.967Z,23674.88
2023-03-26T08:11:43.131Z,51732.48
2023-03-26T08:12:43.273Z,25272.32
2023-03-26T08:13:43.427Z,33239.04
2023-03-26T08:14:43.573Z,19783.68
2023-03-26T08:15:43.756Z,14653.439
2023-03-26T08:16:43.828Z,12851.2
2023-03-26T08:17:43.989Z,16762.88
2023-03-26T08:18:44.146Z,13660.16
2023-03-26T08:19:44.294Z,15319.04
2023-03-26T08:20:44.440Z,17582.08
2023-03-26T08:21:44.602Z,17090.56
2023-03-26T08:22:44.746Z,17008.64
2023-03-26T08:23:50.642Z,14663.68
2023-03-26T08:24:45.007Z,13639.68
2023-03-26T08:25:45.101Z,13107.199
2023-03-26T08:26:45.254Z,13916.16
2023-03-26T08:27:45.366Z,16629.76
2023-03-26T08:28:45.502Z,19404.8
2023-03-26T08:29:45.654Z,21852.16
2023-03-26T08:30:45.828Z,22261.76
2023-03-26T08:31:45.963Z,20746.24
2023-03-26T08:32:46.139Z,26931.2
2023-03-26T08:33:46.284Z,31150.08
2023-03-26T08:34:46.420Z,30474.24
2023-03-26T08:35:46.515Z,49807.36
2023-03-26T08:36:46.643Z,32440.32
2023-03-26T08:37:46.798Z,35573.76
2023-03-26T08:38:47.041Z,32563.2
2023-03-26T08:39:47.101Z,34037.76
2023-03-26T08:40:47.255Z,32829.44
2023-03-26T08:41:47.423Z,28016.64
2023-03-26T08:42:47.506Z,43212.8
2023-03-26T08:43:47.719Z,67338.24
2023-03-26T08:44:47.816Z,42065.92
2023-03-26T08:45:47.961Z,49766.4
2023-03-26T08:46:48.156Z,38256.64
2023-03-26T08:47:48.218Z,32952.32
2023-03-26T08:48:48.369Z,27627.52
2023-03-26T08:49:48.515Z,30248.96
2023-03-26T08:50:48.620Z,36741.12
2023-03-26T08:51:48.770Z,38031.36
2023-03-26T08:52:48.918Z,37601.28
2023-03-26T08:53:49.072Z,51363.84
2023-03-26T08:54:49.269Z,43212.8
2023-03-26T08:55:49.398Z,40202.24
2023-03-26T08:56:49.609Z,41103.36
2023-03-26T08:57:49.708Z,46735.36
2023-03-26T08:58:49.865Z,54640.64
2023-03-26T08:59:49.999Z,48496.64
2023-03-26T09:00:50.113Z,60620.8
2023-03-26T09:01:50.299Z,69386.24
2023-03-26T09:02:50.453Z,63979.52
2023-03-26T09:03:50.595Z,45793.28
2023-03-26T09:04:50.655Z,59105.28
2023-03-26T09:05:50.812Z,53002.24
2023-03-26T09:06:50.976Z,59432.96
2023-03-26T09:07:51.142Z,69713.92
2023-03-26T09:08:54.001Z,73605.12
2023-03-26T09:09:51.484Z,74342.4
2023-03-26T09:10:51.643Z,45301.76
2023-03-26T09:11:51.787Z,50954.24
2023-03-26T09:12:51.879Z,58777.6
2023-03-26T09:13:52.036Z,39608.32
2023-03-26T09:14:52.182Z,44318.72
2023-03-26T09:15:52.357Z,58900.48
2023-03-26T09:16:52.479Z,81838.08
2023-03-26T09:17:52.596Z,77127.68
2023-03-26T09:18:52.736Z,71270.4
2023-03-26T09:19:52.882Z,68198.4
2023-03-26T09:20:53.225Z,60416
2023-03-26T09:21:53.099Z,58736.64
2023-03-26T09:22:53.262Z,53616.64
2023-03-26T09:23:53.392Z,39096.32
2023-03-26T09:24:53.503Z,47390.72
2023-03-26T09:25:53.637Z,41369.6
2023-03-26T09:26:53.803Z,39075.84
2023-03-26T09:27:53.901Z,66314.24
2023-03-26T09:28:54.049Z,75284.48
2023-03-26T09:29:54.195Z,79749.12
2023-03-26T09:30:54.470Z,34938.88
2023-03-26T09:31:54.574Z,36638.72
2023-03-26T09:32:54.701Z,71761.92
2023-03-26T09:33:54.726Z,32993.28
2023-03-26T09:34:54.865Z,28405.76
2023-03-26T09:35:55.049Z,30515.2
2023-03-26T09:36:55.140Z,83066.88
2023-03-26T09:37:56.052Z,32194.56
2023-03-26T09:38:55.417Z,91095.04
2023-03-26T09:39:55.608Z,27852.8
2023-03-26T09:40:55.957Z,26501.12
2023-03-26T09:41:55.819Z,91668.48
2023-03-26T09:42:55.985Z,38871.04
2023-03-26T09:43:56.082Z,29081.6
2023-03-26T09:44:56.222Z,79831.04
2023-03-26T09:45:56.417Z,103956.48
2023-03-26T09:46:56.515Z,104366.08
2023-03-26T09:47:56.661Z,104857.59
2023-03-26T09:48:56.783Z,104038.4
2023-03-26T09:49:56.942Z,106086.4
2023-03-26T09:50:57.269Z,95600.64
2023-03-26T09:51:57.214Z,90685.44
2023-03-26T09:52:57.363Z,30085.12
2023-03-26T09:53:57.506Z,36249.6
2023-03-26T09:54:57.659Z,70287.36
2023-03-26T09:55:57.800Z,95846.4
2023-03-26T09:56:58.022Z,91586.55
2023-03-26T09:57:58.289Z,91422.72
2023-03-26T09:58:58.257Z,87900.16
2023-03-26T09:59:58.400Z,92078.08
2023-03-26T10:00:58.724Z,93470.72
2023-03-26T10:01:58.675Z,77168.64
2023-03-26T10:02:58.822Z,71311.36
2023-03-26T10:03:58.950Z,76144.64
2023-03-26T10:04:59.176Z,73482.24
2023-03-26T10:05:59.259Z,35430.4
2023-03-26T10:06:59.417Z,26357.76
2023-03-26T10:07:59.574Z,25948.16
2023-03-26T10:08:59.726Z,27504.64
2023-03-26T10:09:59.866Z,33423.36
2023-03-26T10:10:59.979Z,30330.88
2023-03-26T10:12:00.123Z,26460.16
2023-03-26T10:13:08.264Z,25825.28
2023-03-26T10:14:00.404Z,29614.08
2023-03-26T10:15:00.580Z,52674.56
2023-03-26T10:16:00.728Z,61030.4
2023-03-26T10:17:00.888Z,57753.6
2023-03-26T10:18:00.943Z,56483.84
2023-03-26T10:19:01.098Z,52224
2023-03-26T10:20:01.274Z,54517.76
2023-03-26T10:21:01.380Z,57344
2023-03-26T10:22:01.540Z,59842.56
2023-03-26T10:23:01.711Z,50012.16
2023-03-26T10:24:01.850Z,45793.28
2023-03-26T10:25:01.992Z,40570.88
2023-03-26T10:26:02.153Z,38440.96
2023-03-26T10:27:08.197Z,41062.4
2023-03-26T10:28:02.436Z,44810.24
2023-03-26T10:29:02.602Z,41041.92
2023-03-26T10:30:02.764Z,43253.76
2023-03-26T10:31:02.922Z,43581.44
2023-03-26T10:32:02.996Z,40714.24
2023-03-26T10:33:03.230Z,32993.28
2023-03-26T10:34:03.246Z,31088.64
2023-03-26T10:35:03.411Z,29245.44
2023-03-26T10:36:03.588Z,27402.24
2023-03-26T10:37:03.697Z,25825.28
2023-03-26T10:38:03.819Z,25518.08
2023-03-26T10:39:04.100Z,23121.92
2023-03-26T10:40:04.307Z,23183.36
2023-03-26T10:41:04.382Z,25825.28
2023-03-26T10:42:04.582Z,37212.16
2023-03-26T10:43:04.709Z,34979.84
2023-03-26T10:44:08.350Z,33935.36
2023-03-26T10:45:06.363Z,33607.68
2023-03-26T10:46:05.074Z,34324.48
2023-03-26T10:47:05.192Z,32522.24
2023-03-26T10:48:05.301Z,32768
2023-03-26T10:49:05.473Z,29286.4
2023-03-26T10:50:05.620Z,30003.2
2023-03-26T10:51:05.777Z,33914.88
2023-03-26T10:52:05.917Z,35860.48
2023-03-26T10:53:06.077Z,39178.24
2023-03-26T10:54:06.231Z,39915.52
2023-03-26T10:55:06.394Z,50790.4
2023-03-26T10:56:06.524Z,75325.44
2023-03-26T10:57:06.724Z,76349.44
2023-03-26T10:58:06.789Z,85606.4
2023-03-26T10:59:06.938Z,90439.68
2023-03-26T11:00:07.073Z,69058.56
2023-03-26T11:01:07.199Z,75939.84
2023-03-26T11:02:07.336Z,56401.92
2023-03-26T11:03:07.493Z,89047.04
2023-03-26T11:04:07.635Z,86179.84
2023-03-26T11:05:07.854Z,79667.2
2023-03-26T11:06:07.990Z,77946.88
2023-03-26T11:07:08.542Z,77905.92
2023-03-26T11:08:08.199Z,84295.68
2023-03-26T11:09:08.356Z,86589.44
2023-03-26T11:10:08.572Z,82821.12
2023-03-26T11:11:08.663Z,53329.92
2023-03-26T11:12:25.951Z,45342.72
2023-03-26T11:13:08.958Z,50790.4
2023-03-26T11:14:09.124Z,42926.08
2023-03-26T11:15:09.267Z,40509.44
2023-03-26T11:16:09.505Z,37416.96
2023-03-26T11:17:09.565Z,42229.76
2023-03-26T11:18:09.707Z,53248
2023-03-26T11:19:09.829Z,35143.68
2023-03-26T11:20:09.977Z,36761.6
2023-03-26T11:21:18.398Z,31580.16
2023-03-26T11:22:10.221Z,37621.76
2023-03-26T11:23:10.383Z,32481.28
2023-03-26T11:24:10.530Z,34304
2023-03-26T11:25:10.683Z,35491.84
2023-03-26T11:26:10.846Z,51568.64
2023-03-26T11:27:14.744Z,48660.48
2023-03-26T11:28:12.188Z,41840.64
2023-03-26T11:29:30.909Z,34734.08
2023-03-26T11:30:11.339Z,35450.88
2023-03-26T11:31:11.497Z,30453.76
2023-03-26T11:32:11.592Z,31334.4
2023-03-26T11:33:11.753Z,28774.4
2023-03-26T11:34:11.892Z,25866.24
2023-03-26T11:35:12.041Z,24883.2
2023-03-26T11:36:12.258Z,23982.08
2023-03-26T11:37:12.357Z,23408.64
2023-03-26T11:38:12.505Z,22732.8
2023-03-26T11:39:12.657Z,21852.16
2023-03-26T11:40:12.777Z,21094.4
2023-03-26T11:41:12.919Z,20756.48
2023-03-26T11:42:13.055Z,20992
2023-03-26T11:43:13.227Z,20510.72
2023-03-26T11:44:13.357Z,20408.32
2023-03-26T11:45:13.544Z,20428.8
2023-03-26T11:46:13.720Z,20428.8
2023-03-26T11:47:13.816Z,20049.92
2023-03-26T11:48:13.977Z,19435.52
2023-03-26T11:49:14.121Z,18913.28
2023-03-26T11:50:14.280Z,18216.96
2023-03-26T11:51:14.438Z,17674.24
2023-03-26T11:52:14.629Z,17141.76
2023-03-26T11:53:14.750Z,16855.04
2023-03-26T11:54:14.880Z,17080.32
2023-03-26T11:55:15.038Z,17745.92
2023-03-26T11:56:15.245Z,18667.52
2023-03-26T11:57:15.411Z,19630.08
2023-03-26T11:58:15.477Z,19896.32
2023-03-26T11:59:15.624Z,19701.76
2023-03-26T12:00:15.751Z,19200
2023-03-26T12:01:15.910Z,18739.2
2023-03-26T12:02:16.056Z,18626.56
2023-03-26T12:03:16.246Z,18667.52
2023-03-26T12:04:16.349Z,18769.92
2023-03-26T12:05:16.490Z,18831.36
2023-03-26T12:06:16.642Z,18728.96
2023-03-26T12:07:16.806Z,18503.68
2023-03-26T12:08:16.948Z,18350.08
2023-03-26T12:09:17.092Z,18094.08
2023-03-26T12:10:18.415Z,17745.92
2023-03-26T12:11:17.389Z,17479.68
2023-03-26T12:12:17.545Z,17203.2
2023-03-26T12:13:17.693Z,16998.4
2023-03-26T12:14:17.852Z,16773.12
2023-03-26T12:15:18.024Z,16496.64
2023-03-26T12:16:18.203Z,16271.359
2023-03-26T12:17:18.301Z,16035.84
2023-03-26T12:18:18.459Z,15605.76
2023-03-26T12:19:18.603Z,15206.399
2023-03-26T12:20:18.725Z,14663.68
2023-03-26T12:21:18.877Z,14254.08
2023-03-26T12:22:19.013Z,13936.64
2023-03-26T12:23:19.167Z,13905.92
2023-03-26T12:24:19.317Z,14069.76
2023-03-26T12:25:19.464Z,14254.08
2023-03-26T12:26:19.614Z,14469.12
2023-03-26T12:27:19.767Z,14643.199
2023-03-26T12:28:19.922Z,14807.04
2023-03-26T12:29:20.064Z,14837.76
2023-03-26T12:30:20.224Z,14848
2023-03-26T12:31:20.432Z,14940.159
2023-03-26T12:32:20.519Z,15185.92
2023-03-26T12:33:20.678Z,15595.52